Time;durP1;ratioP1;P1;durP2;ratioP2;P2;SDS_P1;SDS_P2;PMS_P1;PMS_P2;Temp;Humidity;BMP_temperature;BMP_pressure;BME280_temperature;BME280_humidity;BME280_pressure;Samples;Min_cycle;Max_cycle;Signal;HPM_P1;HPM_P2
2023/04/01 00:00:22;;;;;;;4.30;2.03;;;9.90;99.90;;;;;;5093849;28;20024;-71
2023/04/01 00:02:48;;;;;;;6.30;3.08;;;9.90;99.90;;;;;;5093810;28;20036;-71
2023/04/01 00:05:14;;;;;;;5.22;3.55;;;9.80;99.90;;;;;;5092616;28;20027;-70
2023/04/01 00:07:40;;;;;;;2.75;1.77;;;9.90;99.90;;;;;;5093467;28;20188;-70
2023/04/01 00:10:08;;;;;;;2.35;1.45;;;9.90;99.90;;;;;;5094004;28;20035;-71
2023/04/01 00:12:34;;;;;;;0.75;0.75;;;10.00;99.90;;;;;;5093095;28;20122;-71
2023/04/01 00:15:01;;;;;;;0.03;0.03;;;9.90;99.90;;;;;;5093731;28;20028;-70
2023/04/01 00:17:26;;;;;;;6.38;3.30;;;9.90;99.90;;;;;;5093532;28;20063;-71
2023/04/01 00:19:55;;;;;;;5.00;3.63;;;9.90;99.90;;;;;;5093559;28;20108;-70
2023/04/01 00:22:21;;;;;;;2.85;2.47;;;9.80;99.90;;;;;;5093382;28;20109;-71
2023/04/01 00:24:47;;;;;;;1.83;1.67;;;9.80;99.90;;;;;;5092286;28;20032;-70
2023/04/01 00:27:13;;;;;;;10.93;3.67;;;9.90;99.90;;;;;;5091901;28;20036;-70
2023/04/01 00:29:42;;;;;;;11.23;3.95;;;9.80;99.90;;;;;;5092006;28;20020;-71
2023/04/01 00:32:08;;;;;;;5.82;3.40;;;9.90;99.90;;;;;;5093301;28;20075;-71
2023/04/01 00:34:33;;;;;;;3.58;2.83;;;9.80;99.90;;;;;;5092120;28;20059;-71
2023/04/01 00:37:00;;;;;;;2.72;2.47;;;9.90;99.90;;;;;;5091827;28;20024;-72
2023/04/01 00:39:28;;;;;;;3.70;2.63;;;9.90;99.90;;;;;;5091974;28;20023;-72
2023/04/01 00:41:54;;;;;;;12.52;5.65;;;9.80;99.90;;;;;;5092883;28;20088;-71
2023/04/01 00:44:27;;;;;;;15.00;5.25;;;9.90;99.90;;;;;;5091934;28;20020;-71
2023/04/01 00:46:53;;;;;;;9.45;2.90;;;9.80;99.90;;;;;;5093004;28;20499;-71
2023/04/01 00:49:22;;;;;;;3.67;2.10;;;9.80;99.90;;;;;;5091929;28;20024;-72
2023/04/01 00:51:51;;;;;;;2.22;2.03;;;9.80;99.90;;;;;;5066514;28;20369;-71
2023/04/01 00:54:20;;;;;;;13.43;2.60;;;9.80;99.90;;;;;;5072690;28;20031;-71
2023/04/01 00:56:55;;;;;;;3.17;1.83;;;9.70;99.90;;;;;;5058562;28;20154;-70
2023/04/01 00:59:26;;;;;;;6.78;2.25;;;9.70;99.90;;;;;;5071601;28;20079;-71
2023/04/01 01:01:52;;;;;;;7.50;2.90;;;9.80;99.90;;;;;;5071459;28;20043;-70
2023/04/01 01:04:32;;;;;;;8.00;2.65;;;9.80;99.90;;;;;;5071693;28;20476;-71
2023/04/01 01:07:34;;;;;;;3.13;1.48;;;9.70;99.90;;;;;;5071364;28;20066;-70
2023/04/01 01:10:05;;;;;;;3.50;1.70;;;9.70;99.90;;;;;;5033425;28;20037;-70
2023/04/01 01:12:34;;;;;;;0.75;0.75;;;9.70;99.90;;;;;;5064313;28;20056;-71
2023/04/01 01:15:02;;;;;;;1.27;0.75;;;9.70;99.90;;;;;;5071523;28;20553;-70
2023/04/01 01:17:52;;;;;;;11.93;2.72;;;9.70;99.90;;;;;;5071072;28;20033;-71
2023/04/01 01:20:27;;;;;;;11.75;2.58;;;9.70;99.90;;;;;;5072669;28;20021;-71
2023/04/01 01:23:16;;;;;;;11.50;0.95;;;9.70;99.90;;;;;;5071198;28;20024;-71
2023/04/01 01:26:13;;;;;;;14.45;2.42;;;9.70;99.90;;;;;;5054360;28;20055;-71
2023/04/01 01:29:13;;;;;;;10.23;2.17;;;9.70;99.90;;;;;;5064085;28;20108;-71
2023/04/01 01:31:45;;;;;;;2.83;1.80;;;9.60;99.90;;;;;;5074784;28;20036;-71
2023/04/01 01:34:19;;;;;;;4.25;2.30;;;9.60;99.90;;;;;;5076540;28;20040;-71
2023/04/01 01:36:49;;;;;;;4.18;1.88;;;9.60;99.90;;;;;;5058522;28;20024;-71
2023/04/01 01:39:17;;;;;;;7.85;2.80;;;9.60;99.90;;;;;;5076050;28;20040;-71
2023/04/01 01:41:46;;;;;;;7.55;2.58;;;9.60;99.90;;;;;;5075030;28;20037;-71
2023/04/01 01:44:15;;;;;;;6.70;2.38;;;9.60;99.90;;;;;;5074982;28;20052;-71
2023/04/01 01:46:42;;;;;;;6.50;2.60;;;9.60;99.90;;;;;;5076153;28;20025;-70
2023/04/01 01:49:12;;;;;;;11.13;2.67;;;9.50;99.90;;;;;;5076125;28;20096;-71
2023/04/01 01:51:39;;;;;;;2.47;1.30;;;9.50;99.90;;;;;;5074915;28;20024;-71
2023/04/01 01:54:11;;;;;;;6.35;2.75;;;9.50;99.90;;;;;;5074514;28;20466;-71
2023/04/01 01:56:38;;;;;;;5.90;2.85;;;9.50;99.90;;;;;;5074662;28;20021;-71
2023/04/01 01:59:09;;;;;;;4.18;0.40;;;9.50;99.90;;;;;;5074686;28;20012;-71
2023/04/01 02:01:41;;;;;;;1.40;0.70;;;9.50;99.90;;;;;;5074759;28;20493;-71
2023/04/01 02:04:14;;;;;;;7.10;1.30;;;9.50;99.90;;;;;;5074516;28;20017;-71
2023/04/01 02:06:52;;;;;;;1.42;1.33;;;9.40;99.90;;;;;;5074783;28;20500;-71
2023/04/01 02:09:19;;;;;;;0.82;0.40;;;9.50;99.90;;;;;;5074403;28;20071;-71
2023/04/01 02:11:52;;;;;;;2.47;1.27;;;9.50;99.90;;;;;;5074538;28;20041;-71
2023/04/01 02:14:22;;;;;;;0.88;0.70;;;9.50;99.90;;;;;;5074251;28;20074;-71
2023/04/01 02:17:05;;;;;;;4.03;1.80;;;9.50;99.90;;;;;;5074581;28;20395;-72
2023/04/01 02:19:38;;;;;;;2.72;1.88;;;9.40;99.90;;;;;;5057425;28;20021;-71
2023/04/01 02:22:13;;;;;;;1.77;1.58;;;9.40;99.90;;;;;;5067779;28;20028;-71
2023/04/01 02:24:40;;;;;;;3.08;2.13;;;9.40;99.90;;;;;;5075467;28;20044;-71
2023/04/01 02:27:06;;;;;;;3.10;1.75;;;9.40;99.90;;;;;;5074566;28;20107;-71
2023/04/01 02:29:33;;;;;;;0.52;0.52;;;9.40;99.90;;;;;;5073887;28;20052;-71
2023/04/01 02:31:59;;;;;;;5.15;3.00;;;9.50;99.90;;;;;;5074172;28;20448;-71
2023/04/01 02:34:26;;;;;;;3.85;1.73;;;9.40;99.90;;;;;;5073774;28;20504;-71
2023/04/01 02:36:53;;;;;;;0.60;0.50;;;9.40;99.90;;;;;;5073914;28;20075;-71
2023/04/01 02:39:19;;;;;;;5.05;1.75;;;9.40;99.90;;;;;;5075147;28;20511;-71
2023/04/01 02:41:46;;;;;;;3.28;2.35;;;9.40;99.90;;;;;;5074122;28;20033;-71
2023/04/01 02:44:14;;;;;;;8.90;2.13;;;9.40;99.90;;;;;;5073777;28;20029;-71
2023/04/01 02:46:41;;;;;;;1.95;1.15;;;9.30;99.90;;;;;;5074107;28;20072;-71
2023/04/01 02:49:07;;;;;;;3.97;1.75;;;9.40;99.90;;;;;;5074974;28;20396;-71
2023/04/01 02:51:33;;;;;;;8.75;2.78;;;9.50;99.90;;;;;;5074595;28;20048;-71
2023/04/01 02:53:59;;;;;;;0.60;0.60;;;9.40;99.90;;;;;;5073799;28;20496;-71
2023/04/01 02:56:25;;;;;;;1.13;1.02;;;9.40;99.90;;;;;;5073582;28;20041;-71
2023/04/01 02:58:52;;;;;;;1.75;1.17;;;9.40;99.90;;;;;;5074854;28;20028;-71
2023/04/01 03:01:18;;;;;;;3.85;2.85;;;9.30;99.90;;;;;;5073825;28;20070;-71
2023/04/01 03:03:44;;;;;;;3.53;1.98;;;9.30;99.90;;;;;;5073439;28;20389;-71
2023/04/01 03:06:13;;;;;;;6.13;2.05;;;9.40;99.90;;;;;;5073257;28;20040;-71
2023/04/01 03:08:40;;;;;;;5.80;2.83;;;9.30;99.90;;;;;;5074494;28;20380;-71
2023/04/01 03:11:05;;;;;;;5.53;3.60;;;9.40;99.90;;;;;;5074765;28;20044;-71
2023/04/01 03:13:34;;;;;;;0.85;0.77;;;9.30;99.90;;;;;;5073375;28;20033;-71
2023/04/01 03:16:00;;;;;;;7.38;3.33;;;9.30;99.90;;;;;;5074321;28;20012;-71
2023/04/01 03:18:26;;;;;;;13.05;4.18;;;9.30;99.90;;;;;;5073527;28;20032;-71
2023/04/01 03:20:52;;;;;;;3.35;1.35;;;9.30;99.90;;;;;;5072682;28;20013;-71
2023/04/01 03:23:19;;;;;;;12.55;2.63;;;9.30;99.90;;;;;;5073366;28;20031;-71
2023/04/01 03:25:45;;;;;;;2.95;2.08;;;9.30;99.90;;;;;;5074267;28;20107;-71
2023/04/01 03:28:12;;;;;;;3.75;2.53;;;9.30;99.90;;;;;;5073173;28;20028;-71
2023/04/01 03:30:38;;;;;;;4.25;2.85;;;9.40;99.90;;;;;;5073026;28;20551;-70
2023/04/01 03:33:04;;;;;;;15.18;4.53;;;9.40;99.90;;;;;;5055741;28;20033;-70
2023/04/01 03:35:31;;;;;;;10.90;3.83;;;9.30;99.90;;;;;;5061744;28;20025;-70
2023/04/01 03:37:57;;;;;;;1.38;1.27;;;9.30;99.90;;;;;;5062872;28;20054;-70
2023/04/01 03:40:23;;;;;;;1.90;1.52;;;9.30;99.90;;;;;;5072517;28;20029;-71
2023/04/01 03:42:50;;;;;;;5.47;1.80;;;9.30;99.90;;;;;;5072825;28;20024;-70
2023/04/01 03:45:16;;;;;;;4.07;2.70;;;9.30;99.90;;;;;;5072857;28;20070;-70
2023/04/01 03:47:42;;;;;;;2.63;2.33;;;9.30;99.90;;;;;;5072171;28;20036;-72
2023/04/01 03:50:08;;;;;;;10.50;6.13;;;9.30;99.90;;;;;;5072290;28;20028;-72
2023/04/01 03:52:34;;;;;;;2.60;1.70;;;9.30;99.90;;;;;;5072657;28;20043;-72
2023/04/01 03:55:01;;;;;;;3.92;2.17;;;9.30;99.90;;;;;;5073441;28;20021;-72
2023/04/01 03:57:27;;;;;;;3.90;2.55;;;9.30;99.90;;;;;;5073879;28;20071;-72
2023/04/01 03:59:57;;;;;;;3.53;2.80;;;9.30;99.90;;;;;;5072458;28;20028;-72
2023/04/01 04:02:22;;;;;;;11.88;3.97;;;9.30;99.90;;;;;;5072218;28;20024;-71
2023/04/01 04:04:48;;;;;;;10.45;4.32;;;9.30;99.90;;;;;;5071946;28;20567;-72
2023/04/01 04:07:14;;;;;;;5.80;3.17;;;9.30;99.90;;;;;;5073481;28;20523;-71
2023/04/01 04:09:59;;;;;;;1.38;0.80;;;9.30;99.90;;;;;;5072196;28;20032;-73
2023/04/01 04:12:25;;;;;;;4.43;2.92;;;9.30;99.90;;;;;;5071957;28;20055;-71
2023/04/01 04:14:51;;;;;;;5.65;1.90;;;9.30;99.90;;;;;;5072344;28;20107;-73
2023/04/01 04:17:17;;;;;;;2.90;1.80;;;9.30;99.90;;;;;;5071930;28;20110;-72
2023/04/01 04:19:43;;;;;;;4.00;2.15;;;9.30;99.90;;;;;;5072038;28;20028;-73
2023/04/01 04:22:09;;;;;;;5.18;2.15;;;9.30;99.90;;;;;;5072174;28;20118;-71
2023/04/01 04:24:36;;;;;;;8.35;3.95;;;9.30;99.90;;;;;;5072050;28;20020;-70
2023/04/01 04:27:07;;;;;;;9.40;2.80;;;9.30;99.90;;;;;;5072018;28;20032;-71
2023/04/01 04:29:36;;;;;;;5.93;1.27;;;9.30;99.90;;;;;;5071946;28;20031;-70
2023/04/01 04:32:01;;;;;;;3.05;1.55;;;9.30;99.90;;;;;;5071813;28;20029;-71
2023/04/01 04:34:27;;;;;;;2.40;1.98;;;9.30;99.90;;;;;;5071345;28;20025;-71
2023/04/01 04:36:53;;;;;;;10.63;2.05;;;9.20;99.90;;;;;;5071848;28;20457;-71
2023/04/01 04:39:21;;;;;;;2.15;1.63;;;9.30;99.90;;;;;;5071774;28;20024;-71
2023/04/01 04:41:47;;;;;;;7.57;2.97;;;9.20;99.90;;;;;;5073008;28;20495;-70
2023/04/01 04:44:13;;;;;;;4.82;2.03;;;9.10;99.90;;;;;;5071821;28;20028;-71
2023/04/01 04:46:39;;;;;;;6.53;2.28;;;9.20;99.90;;;;;;5071491;28;20427;-71
2023/04/01 04:49:15;;;;;;;5.43;2.30;;;9.20;99.90;;;;;;5071476;28;20571;-71
2023/04/01 04:51:41;;;;;;;4.03;1.65;;;9.20;99.90;;;;;;5071487;28;20115;-71
2023/04/01 04:54:07;;;;;;;1.98;1.40;;;9.20;99.90;;;;;;5071725;28;20043;-70
2023/04/01 04:57:08;;;;;;;2.22;1.02;;;9.20;99.90;;;;;;5070544;28;20025;-71
2023/04/01 04:59:42;;;;;;;4.18;1.67;;;9.20;99.90;;;;;;5070523;28;20078;-71
2023/04/01 05:02:12;;;;;;;2.15;1.70;;;9.20;99.90;;;;;;5070941;28;20028;-71
2023/04/01 05:04:38;;;;;;;1.13;1.02;;;9.20;99.90;;;;;;5071613;28;20048;-71
2023/04/01 05:07:06;;;;;;;0.82;0.73;;;9.30;99.90;;;;;;5054853;28;20021;-70
2023/04/01 05:09:33;;;;;;;4.65;1.73;;;9.20;99.90;;;;;;5071427;28;20021;-70
2023/04/01 05:11:59;;;;;;;2.25;1.40;;;9.10;99.90;;;;;;5071080;28;20052;-70
2023/04/01 05:14:29;;;;;;;2.75;1.15;;;9.10;99.90;;;;;;5071367;28;20480;-70
2023/04/01 05:17:03;;;;;;;0.75;0.45;;;9.20;99.90;;;;;;5070807;28;20126;-71
2023/04/01 05:19:28;;;;;;;0.80;0.73;;;9.10;99.90;;;;;;5071718;28;20419;-71
2023/04/01 05:21:54;;;;;;;0.80;0.80;;;9.10;99.90;;;;;;5071544;28;20027;-71
2023/04/01 05:24:20;;;;;;;0.43;0.25;;;9.10;99.90;;;;;;5071059;28;20025;-71
2023/04/01 05:26:47;;;;;;;4.22;0.52;;;9.10;99.90;;;;;;5071241;28;20025;-71
2023/04/01 05:29:12;;;;;;;1.42;0.98;;;9.20;99.90;;;;;;5071151;28;20024;-71
2023/04/01 05:31:39;;;;;;;0.77;0.77;;;9.10;99.90;;;;;;5071057;28;20032;-72
2023/04/01 05:34:05;;;;;;;0.98;0.98;;;9.10;99.90;;;;;;5070889;28;20029;-70
2023/04/01 05:36:31;;;;;;;0.50;0.50;;;9.10;99.90;;;;;;5071255;28;20036;-70
2023/04/01 05:38:57;;;;;;;2.53;0.55;;;9.10;99.90;;;;;;5070810;28;20036;-71
2023/04/01 05:41:25;;;;;;;0.30;0.30;;;9.10;99.90;;;;;;5070562;28;20025;-71
2023/04/01 05:43:51;;;;;;;1.20;1.10;;;9.10;99.90;;;;;;5071827;28;20032;-70
2023/04/01 05:46:36;;;;;;;1.60;0.90;;;9.10;99.90;;;;;;5070780;28;20043;-71
2023/04/01 05:49:14;;;;;;;7.15;0.65;;;9.10;99.90;;;;;;5070569;28;20034;-70
2023/04/01 05:51:40;;;;;;;0.75;0.47;;;9.10;99.90;;;;;;5070544;28;20044;-70
2023/04/01 05:54:08;;;;;;;1.00;0.68;;;9.10;99.90;;;;;;5070802;28;20032;-70
2023/04/01 05:56:34;;;;;;;1.98;1.15;;;9.10;99.90;;;;;;5070925;28;20018;-71
2023/04/01 05:59:00;;;;;;;2.33;0.80;;;9.10;99.90;;;;;;5070629;28;20021;-71
2023/04/01 06:01:26;;;;;;;0.30;0.30;;;9.00;99.90;;;;;;5070757;28;20074;-71
2023/04/01 06:03:52;;;;;;;0.60;0.50;;;9.00;99.90;;;;;;5070665;28;20432;-71
2023/04/01 06:06:28;;;;;;;2.95;0.98;;;9.10;99.90;;;;;;5072167;28;20025;-71
2023/04/01 06:09:26;;;;;;;0.10;0.10;;;9.00;99.90;;;;;;5070847;28;20111;-71
2023/04/01 06:12:12;;;;;;;0.43;0.43;;;9.00;99.90;;;;;;5074552;28;20063;-71
2023/04/01 06:15:17;;;;;;;1.88;0.88;;;9.10;99.90;;;;;;5044153;28;20041;-70
2023/04/01 06:18:30;;;;;;;0.77;0.52;;;9.00;99.90;;;;;;5074283;28;20035;-71
2023/04/01 06:21:01;;;;;;;0.70;0.55;;;9.00;99.90;;;;;;5074434;28;20012;-71
2023/04/01 06:23:27;;;;;;;3.75;1.33;;;9.00;99.90;;;;;;5051119;28;21160;-71
2023/04/01 06:26:19;;;;;;;1.45;0.85;;;9.00;99.90;;;;;;5069575;28;20029;-71
2023/04/01 06:29:03;;;;;;;0.45;0.45;;;9.00;99.90;;;;;;5063001;28;20032;-70
2023/04/01 06:32:01;;;;;;;0.10;0.10;;;9.00;99.90;;;;;;5076065;28;20048;-71
2023/04/01 06:34:48;;;;;;;0.35;0.20;;;9.10;99.90;;;;;;5073497;28;20041;-71
2023/04/01 06:37:36;;;;;;;1.60;1.10;;;9.10;99.90;;;;;;5073331;28;20052;-71
2023/04/01 06:40:40;;;;;;;0.40;0.40;;;9.10;99.90;;;;;;5071191;28;20036;-71
2023/04/01 06:43:16;;;;;;;0.10;0.10;;;9.10;99.90;;;;;;5060456;28;20495;-71
2023/04/01 06:46:29;;;;;;;0.25;0.20;;;9.10;99.90;;;;;;5079633;28;20511;-71
2023/04/01 06:50:15;;;;;;;0.10;0.10;;;9.10;99.90;;;;;;5087767;28;20040;-73
2023/04/01 06:53:17;;;;;;;0.52;0.50;;;9.20;99.90;;;;;;5075040;28;20058;-73
2023/04/01 06:56:12;;;;;;;0.50;0.50;;;9.20;99.90;;;;;;5083096;28;20063;-73
2023/04/01 06:59:28;;;;;;;0.30;0.30;;;9.10;99.90;;;;;;5064995;28;20028;-72
2023/04/01 07:02:23;;;;;;;0.13;0.13;;;9.20;99.90;;;;;;5019996;28;20068;-71
2023/04/01 07:04:52;;;;;;;0.10;0.10;;;9.10;99.90;;;;;;5016536;28;20036;-72
2023/04/01 07:07:36;;;;;;;0.20;0.20;;;9.20;99.90;;;;;;5072021;28;20029;-72
2023/04/01 07:10:19;;;;;;;11.07;3.15;;;9.20;99.90;;;;;;5082905;28;20139;-73
2023/04/01 07:13:14;;;;;;;3.80;1.55;;;9.20;99.90;;;;;;5066130;28;20393;-72
2023/04/01 07:16:05;;;;;;;0.90;0.60;;;9.10;99.90;;;;;;5086972;28;20108;-71
2023/04/01 07:18:54;;;;;;;0.73;0.73;;;9.20;99.90;;;;;;5087359;28;20024;-72
2023/04/01 07:21:50;;;;;;;0.15;0.15;;;9.20;99.90;;;;;;5071744;28;20024;-73
2023/04/01 07:24:29;;;;;;;6.10;4.03;;;9.20;99.90;;;;;;5058815;28;20400;-73
2023/04/01 07:27:12;;;;;;;0.77;0.77;;;9.20;99.90;;;;;;5073561;28;20041;-73
2023/04/01 07:29:39;;;;;;;;;;;9.30;99.90;;;;;;5082503;28;20032;-73
2023/04/01 07:32:26;;;;;;;0.98;0.63;;;9.40;99.90;;;;;;5071429;28;19921;-73
2023/04/01 07:35:14;;;;;;;1.10;1.05;;;9.30;99.90;;;;;;5072613;28;20024;-73
2023/04/01 07:38:02;;;;;;;0.90;0.60;;;9.50;99.90;;;;;;5071681;28;20044;-73
2023/04/01 07:41:07;;;;;;;1.17;0.55;;;9.40;99.90;;;;;;5063663;28;20380;-73
2023/04/01 07:43:40;;;;;;;1.63;0.95;;;9.40;99.90;;;;;;5061253;28;20020;-72
2023/04/01 07:46:48;;;;;;;4.13;0.68;;;9.40;99.90;;;;;;5072318;28;20024;-73
2023/04/01 07:49:46;;;;;;;0.28;0.28;;;9.50;99.90;;;;;;5072507;28;20032;-72
2023/04/01 07:52:24;;;;;;;0.22;0.22;;;9.50;99.90;;;;;;5062256;28;20071;-73
2023/04/01 07:55:19;;;;;;;0.30;0.30;;;9.40;99.90;;;;;;5056764;28;20048;-72
2023/04/01 07:58:15;;;;;;;0.65;0.65;;;9.50;99.90;;;;;;5072429;28;20035;-73
2023/04/01 08:01:02;;;;;;;0.47;0.45;;;9.40;99.90;;;;;;5074745;28;20063;-73
2023/04/01 08:03:43;;;;;;;0.30;0.30;;;9.40;99.90;;;;;;5072297;28;20024;-73
2023/04/01 08:06:19;;;;;;;3.30;0.40;;;9.40;99.90;;;;;;5072136;28;20043;-73
2023/04/01 08:09:19;;;;;;;0.30;0.22;;;9.40;99.90;;;;;;5072170;28;20029;-72
2023/04/01 08:12:35;;;;;;;1.23;1.13;;;9.40;99.90;;;;;;5067954;28;20071;-72
2023/04/01 08:15:22;;;;;;;0.08;0.08;;;9.50;99.90;;;;;;5073650;28;20040;-72
2023/04/01 08:18:32;;;;;;;0.63;0.55;;;9.50;99.90;;;;;;5061567;28;20044;-72
2023/04/01 08:21:01;;;;;;;0.68;0.68;;;9.60;99.90;;;;;;5072006;28;20048;-72
2023/04/01 08:23:38;;;;;;;0.20;0.20;;;9.50;99.90;;;;;;5072088;28;20024;-73
2023/04/01 08:26:19;;;;;;;0.10;0.10;;;9.50;99.90;;;;;;5071543;28;20488;-72
2023/04/01 08:29:12;;;;;;;0.10;0.10;;;9.50;99.90;;;;;;5072013;28;20020;-71
2023/04/01 08:31:38;;;;;;;0.20;0.20;;;9.60;99.90;;;;;;5056941;28;20021;-71
2023/04/01 08:34:14;;;;;;;0.60;0.60;;;9.60;99.90;;;;;;5049299;28;20055;-71
2023/04/01 08:36:46;;;;;;;0.38;0.38;;;9.60;99.90;;;;;;5071848;28;20085;-70
2023/04/01 08:39:23;;;;;;;2.15;0.85;;;9.70;99.90;;;;;;5071334;28;20032;-71
2023/04/01 08:42:07;;;;;;;0.20;0.20;;;9.80;99.90;;;;;;5071678;28;20546;-71
2023/04/01 08:45:17;;;;;;;0.30;0.30;;;9.80;99.90;;;;;;5072947;28;20067;-71
2023/04/01 08:48:16;;;;;;;0.47;0.47;;;9.60;99.90;;;;;;5071495;28;20028;-71
2023/04/01 08:51:11;;;;;;;0.30;0.30;;;9.70;99.90;;;;;;5071486;28;20028;-71
2023/04/01 08:53:56;;;;;;;0.68;0.68;;;9.70;99.90;;;;;;5058498;28;20037;-71
2023/04/01 08:56:59;;;;;;;0.30;0.30;;;9.60;99.90;;;;;;5071540;28;20380;-70
2023/04/01 08:59:49;;;;;;;0.25;0.25;;;9.70;99.90;;;;;;5071473;28;20036;-71
2023/04/01 09:02:54;;;;;;;0.15;0.15;;;9.60;99.90;;;;;;5060412;28;20076;-71
2023/04/01 09:05:36;;;;;;;0.10;0.10;;;9.60;99.90;;;;;;5076266;28;20031;-71
2023/04/01 09:08:27;;;;;;;0.30;0.22;;;9.70;99.90;;;;;;5071169;28;20024;-72
2023/04/01 09:11:12;;;;;;;0.43;0.22;;;9.60;99.90;;;;;;5071794;28;20039;-73
2023/04/01 09:14:43;;;;;;;0.00;0.00;;;9.60;99.90;;;;;;5072537;28;20127;-73
2023/04/01 09:17:25;;;;;;;0.98;0.50;;;9.80;99.90;;;;;;5071275;28;20480;-73
2023/04/01 09:19:56;;;;;;;;;;;9.80;99.90;;;;;;5072346;28;20032;-72
2023/04/01 09:22:25;;;;;;;0.35;0.35;;;10.00;99.90;;;;;;5071458;28;20388;-73
2023/04/01 09:25:24;;;;;;;0.20;0.20;;;10.00;99.90;;;;;;5063273;28;20028;-73
2023/04/01 09:28:14;;;;;;;0.57;0.30;;;10.00;99.90;;;;;;5073017;28;20488;-72
2023/04/01 09:31:19;;;;;;;2.90;0.63;;;10.10;99.90;;;;;;5066920;28;20037;-71
2023/04/01 09:34:40;;;;;;;0.40;0.40;;;10.00;99.90;;;;;;5072642;28;20073;-72
2023/04/01 09:37:26;;;;;;;1.52;0.73;;;9.90;99.90;;;;;;5043356;28;20132;-72
2023/04/01 09:40:23;;;;;;;0.33;0.33;;;9.90;99.90;;;;;;5074424;28;20032;-72
2023/04/01 09:43:14;;;;;;;2.20;1.40;;;9.80;99.90;;;;;;5071341;28;20770;-73
2023/04/01 09:45:55;;;;;;;0.30;0.30;;;9.90;99.90;;;;;;5064795;28;20028;-72
2023/04/01 09:48:45;;;;;;;0.57;0.57;;;9.90;99.90;;;;;;5075965;28;20044;-70
2023/04/01 09:51:14;;;;;;;0.22;0.22;;;9.90;99.90;;;;;;5075241;28;20024;-71
2023/04/01 09:54:01;;;;;;;7.32;0.85;;;9.80;99.90;;;;;;5077508;28;20064;-69
2023/04/01 09:56:59;;;;;;;3.95;0.52;;;9.80;99.90;;;;;;5079656;28;20059;-69
2023/04/01 09:59:58;;;;;;;0.15;0.15;;;9.80;99.90;;;;;;5075326;28;20057;-69
2023/04/01 10:03:08;;;;;;;0.25;0.25;;;9.90;99.90;;;;;;5077437;28;20071;-71
2023/04/01 10:05:34;;;;;;;0.20;0.20;;;10.00;99.90;;;;;;5089012;28;20036;-69
2023/04/01 10:08:34;;;;;;;0.10;0.10;;;10.00;99.90;;;;;;5065213;28;20029;-69
2023/04/01 10:11:26;;;;;;;4.65;0.65;;;10.10;99.90;;;;;;5065499;28;20060;-69
2023/04/01 10:14:20;;;;;;;0.50;0.50;;;10.20;99.90;;;;;;5074770;28;20114;-69
2023/04/01 10:17:05;;;;;;;0.43;0.43;;;10.10;99.90;;;;;;5078059;28;20024;-71
2023/04/01 10:19:46;;;;;;;0.73;0.57;;;10.20;99.90;;;;;;5070213;28;20033;-71
2023/04/01 10:22:27;;;;;;;4.80;1.50;;;9.90;99.90;;;;;;5073718;28;20031;-71
2023/04/01 10:25:20;;;;;;;1.10;0.65;;;10.10;99.90;;;;;;5050941;28;20124;-71
2023/04/01 10:28:10;;;;;;;0.38;0.38;;;9.90;99.90;;;;;;5071546;28;20040;-71
2023/04/01 10:31:19;;;;;;;0.60;0.57;;;10.00;99.90;;;;;;5063961;28;20069;-71
2023/04/01 10:33:51;;;;;;;0.10;0.10;;;10.20;99.90;;;;;;5064297;28;20033;-71
2023/04/01 10:36:42;;;;;;;4.15;1.25;;;10.20;99.90;;;;;;5063214;28;20029;-71
2023/04/01 10:39:27;;;;;;;1.00;0.95;;;10.00;99.90;;;;;;5066368;28;20056;-71
2023/04/01 10:42:35;;;;;;;1.95;1.42;;;10.00;99.90;;;;;;5073796;28;20032;-72
2023/04/01 10:45:39;;;;;;;2.55;2.30;;;10.00;99.90;;;;;;5074139;28;20042;-73
2023/04/01 10:48:26;;;;;;;3.95;1.02;;;10.20;99.90;;;;;;5073229;28;20459;-71
2023/04/01 10:51:15;;;;;;;3.03;1.02;;;10.00;99.90;;;;;;5073441;28;20025;-71
2023/04/01 10:54:39;;;;;;;4.05;1.08;;;10.00;99.90;;;;;;5073577;28;20075;-71
2023/04/01 10:57:42;;;;;;;3.58;1.60;;;10.10;99.90;;;;;;5042757;28;20072;-71
2023/04/01 11:01:02;;;;;;;5.70;1.38;;;10.10;99.90;;;;;;5052079;28;20037;-72
2023/04/01 11:04:22;;;;;;;0.20;0.20;;;10.10;99.90;;;;;;5072123;28;20043;-71
2023/04/01 11:07:29;;;;;;;0.20;0.20;;;10.10;99.90;;;;;;5055895;28;20037;-72
2023/04/01 11:10:39;;;;;;;1.92;0.77;;;9.90;99.90;;;;;;5073200;28;20047;-70
2023/04/01 11:13:43;;;;;;;1.58;0.95;;;10.10;99.90;;;;;;5071640;28;20489;-71
2023/04/01 11:16:20;;;;;;;0.57;0.43;;;9.90;99.90;;;;;;5064833;28;20029;-71
2023/04/01 11:18:58;;;;;;;4.28;1.13;;;9.80;99.90;;;;;;5071984;28;20029;-71
2023/04/01 11:21:44;;;;;;;1.23;0.85;;;9.80;99.90;;;;;;5064837;28;20012;-71
2023/04/01 11:24:38;;;;;;;0.10;0.10;;;9.70;99.90;;;;;;5081398;28;20020;-73
2023/04/01 11:27:45;;;;;;;0.52;0.52;;;9.90;99.90;;;;;;5074016;28;20040;-72
2023/04/01 11:30:32;;;;;;;0.80;0.80;;;9.90;99.90;;;;;;5083488;28;20157;-71
2023/04/01 11:33:25;;;;;;;3.65;1.17;;;9.90;99.90;;;;;;5071601;28;20055;-72
2023/04/01 11:36:25;;;;;;;0.80;0.50;;;10.00;99.90;;;;;;5083318;28;20426;-71
2023/04/01 11:39:14;;;;;;;2.95;1.45;;;10.00;99.90;;;;;;5060062;28;20032;-71
2023/04/01 11:42:27;;;;;;;1.88;1.33;;;10.10;99.90;;;;;;5074817;28;20546;-70
2023/04/01 11:45:28;;;;;;;0.17;0.17;;;10.10;99.90;;;;;;5073901;28;20040;-72
2023/04/01 11:48:12;;;;;;;1.48;1.38;;;10.20;99.90;;;;;;5076098;28;20132;-72
2023/04/01 11:50:59;;;;;;;0.00;0.00;;;10.30;99.90;;;;;;5060114;28;20025;-71
2023/04/01 11:53:58;;;;;;;0.75;0.70;;;10.00;99.90;;;;;;5058568;28;20070;-70
2023/04/01 11:56:32;;;;;;;0.95;0.85;;;10.20;99.90;;;;;;5084387;28;20039;-71
2023/04/01 11:59:40;;;;;;;1.17;1.00;;;10.10;99.90;;;;;;5077669;28;20116;-70
2023/04/01 12:02:40;;;;;;;0.50;0.50;;;10.30;99.90;;;;;;5075525;28;20051;-71
2023/04/01 12:05:54;;;;;;;0.30;0.30;;;10.30;99.90;;;;;;5067871;28;20390;-71
2023/04/01 12:08:44;;;;;;;0.60;0.60;;;10.20;99.90;;;;;;5080448;28;20110;-71
2023/04/01 12:11:19;;;;;;;0.60;0.40;;;10.30;99.90;;;;;;5090428;28;20086;-71
2023/04/01 12:13:53;;;;;;;0.35;0.30;;;10.20;99.90;;;;;;5081963;28;20130;-70
2023/04/01 12:16:32;;;;;;;0.68;0.68;;;10.20;99.90;;;;;;5074260;28;20537;-71
2023/04/01 12:19:03;;;;;;;0.40;0.40;;;10.30;99.90;;;;;;5072933;28;20032;-70
2023/04/01 12:22:17;;;;;;;1.08;0.63;;;10.30;99.90;;;;;;5070092;28;20027;-70
2023/04/01 12:24:47;;;;;;;1.48;1.00;;;10.20;99.90;;;;;;5054949;28;20135;-71
2023/04/01 12:27:27;;;;;;;0.80;0.80;;;10.20;99.90;;;;;;5072959;28;20112;-70
2023/04/01 12:30:18;;;;;;;0.47;0.47;;;10.30;99.90;;;;;;5060024;28;20028;-71
2023/04/01 12:32:50;;;;;;;1.08;0.30;;;10.30;99.90;;;;;;5072417;28;20052;-69
2023/04/01 12:35:19;;;;;;;0.88;0.40;;;10.40;99.90;;;;;;5073031;28;20036;-70
2023/04/01 12:37:54;;;;;;;0.30;0.30;;;10.40;99.90;;;;;;5072287;28;20036;-71
2023/04/01 12:41:22;;;;;;;1.77;0.57;;;10.40;99.90;;;;;;5073000;28;20047;-71
2023/04/01 12:44:09;;;;;;;0.25;0.25;;;10.40;99.90;;;;;;5050671;28;20035;-71
2023/04/01 12:47:08;;;;;;;0.30;0.30;;;10.40;99.90;;;;;;5050183;28;20123;-70
2023/04/01 12:49:43;;;;;;;0.30;0.30;;;10.40;99.90;;;;;;5072460;28;20089;-70
2023/04/01 12:52:31;;;;;;;0.57;0.55;;;10.20;99.90;;;;;;5072552;28;20116;-70
2023/04/01 12:54:57;;;;;;;0.45;0.45;;;10.40;99.90;;;;;;5072624;28;20024;-70
2023/04/01 12:57:53;;;;;;;0.20;0.20;;;10.30;99.90;;;;;;5071429;28;20458;-70
2023/04/01 13:00:24;;;;;;;0.50;0.50;;;10.20;99.90;;;;;;5072087;28;20116;-70
2023/04/01 13:03:14;;;;;;;0.68;0.52;;;10.10;99.90;;;;;;5071175;28;20033;-70
2023/04/01 13:05:52;;;;;;;0.43;0.43;;;10.20;99.90;;;;;;5072488;28;20037;-70
2023/04/01 13:08:47;;;;;;;9.55;0.95;;;10.20;99.90;;;;;;5072157;28;20487;-70
2023/04/01 13:11:31;;;;;;;2.03;0.43;;;10.10;99.90;;;;;;5070348;28;20044;-71
2023/04/01 13:14:26;;;;;;;0.20;0.20;;;10.10;99.90;;;;;;5072338;28;20052;-70
2023/04/01 13:17:03;;;;;;;0.77;0.30;;;10.10;99.90;;;;;;5072396;28;20036;-70
2023/04/01 13:20:12;;;;;;;0.55;0.55;;;10.10;99.90;;;;;;5071516;28;20039;-70
2023/04/01 13:22:37;;;;;;;0.50;0.50;;;10.20;99.90;;;;;;5050038;28;20052;-70
2023/04/01 13:25:10;;;;;;;0.70;0.65;;;10.30;99.90;;;;;;5071189;28;20033;-70
2023/04/01 13:27:44;;;;;;;0.65;0.40;;;10.20;99.90;;;;;;5071085;28;20469;-70
2023/04/01 13:30:22;;;;;;;1.17;0.57;;;10.40;99.90;;;;;;5071924;28;20450;-69
2023/04/01 13:33:01;;;;;;;6.28;0.70;;;10.40;99.90;;;;;;5066231;28;20120;-69
2023/04/01 13:36:13;;;;;;;0.60;0.60;;;10.30;99.90;;;;;;5064871;28;20028;-69
2023/04/01 13:39:05;;;;;;;0.90;0.65;;;10.30;99.90;;;;;;5070528;28;20060;-70
2023/04/01 13:42:00;;;;;;;0.28;0.28;;;10.40;99.90;;;;;;5077424;28;20032;-69
2023/04/01 13:44:42;;;;;;;0.20;0.20;;;10.50;99.90;;;;;;5061821;28;20626;-69
2023/04/01 13:47:38;;;;;;;0.82;0.82;;;10.50;99.90;;;;;;5072393;28;20062;-69
2023/04/01 13:50:12;;;;;;;1.33;0.60;;;10.30;99.90;;;;;;5074281;28;20028;-69
2023/04/01 13:52:56;;;;;;;0.57;0.57;;;10.30;99.90;;;;;;5073263;28;20040;-70
2023/04/01 13:55:35;;;;;;;0.40;0.40;;;10.30;99.90;;;;;;5075709;28;20028;-69
2023/04/01 13:58:44;;;;;;;0.63;0.63;;;10.50;99.90;;;;;;5075037;28;20806;-69
2023/04/01 14:01:12;;;;;;;1.10;0.50;;;10.70;99.90;;;;;;5047713;28;20405;-70
2023/04/01 14:03:52;;;;;;;1.40;1.00;;;10.40;99.90;;;;;;5073208;28;20428;-69